createdAt,value
2022-10-28T00:01:27.148Z,7.27
2022-10-28T00:03:57.860Z,6.80
2022-10-28T00:06:28.292Z,6.50
2022-10-28T00:08:58.318Z,6.63
2022-10-28T00:11:28.291Z,7.53
2022-10-28T00:13:58.011Z,7.00
2022-10-28T00:16:29.007Z,7.43
2022-10-28T00:18:59.468Z,7.00
2022-10-28T00:21:29.890Z,7.87
2022-10-28T00:24:02.139Z,7.53
2022-10-28T00:26:32.093Z,7.53
2022-10-28T00:29:05.022Z,7.27
2022-10-28T00:31:34.851Z,6.57
2022-10-28T00:34:05.104Z,6.23
2022-10-28T00:36:35.218Z,7.10
2022-10-28T00:39:11.130Z,7.10
2022-10-28T00:41:41.823Z,6.93
2022-10-28T00:44:53.453Z,7.27
2022-10-28T00:47:32.096Z,6.90
2022-10-28T00:50:09.043Z,7.57
2022-10-28T00:52:37.704Z,6.53
2022-10-28T00:55:09.433Z,6.87
2022-10-28T00:57:40.191Z,6.50
2022-10-28T01:00:09.981Z,7.27
2022-10-28T01:02:45.637Z,7.10
2022-10-28T01:05:17.137Z,7.80
2022-10-28T01:07:46.538Z,7.40
2022-10-28T01:10:16.774Z,8.07
2022-10-28T01:12:58.293Z,7.63
2022-10-28T01:15:35.856Z,6.80
2022-10-28T01:18:16.746Z,7.17
2022-10-28T01:21:18.611Z,6.77
2022-10-28T01:24:00.902Z,6.17
2022-10-28T01:26:50.610Z,7.10
2022-10-28T01:29:48.208Z,6.47
2022-10-28T01:32:26.394Z,6.67
2022-10-28T01:35:02.728Z,7.13
2022-10-28T01:37:36.724Z,7.60
2022-10-28T01:40:10.988Z,7.10
2022-10-28T01:42:46.135Z,7.00
2022-10-28T01:45:19.669Z,7.00
2022-10-28T01:47:57.722Z,7.20
2022-10-28T01:50:32.481Z,7.37
2022-10-28T01:53:04.897Z,6.93
2022-10-28T01:55:38.514Z,7.10
2022-10-28T01:58:08.616Z,7.47
2022-10-28T02:00:38.664Z,7.37
2022-10-28T02:03:10.214Z,6.93
2022-10-28T02:05:42.827Z,7.90
2022-10-28T02:08:32.135Z,6.73
2022-10-28T02:11:20.033Z,7.70
2022-10-28T02:13:56.858Z,7.60
2022-10-28T02:16:32.794Z,8.23
2022-10-28T02:19:10.199Z,7.10
2022-10-28T02:21:49.639Z,7.17
2022-10-28T02:24:22.422Z,7.70
2022-10-28T02:26:55.737Z,7.30
2022-10-28T02:29:31.606Z,7.43
2022-10-28T02:32:05.105Z,7.43
2022-10-28T02:34:40.457Z,7.23
2022-10-28T02:37:14.548Z,7.13
2022-10-28T02:39:47.826Z,7.80
2022-10-28T02:42:20.602Z,8.13
2022-10-28T02:44:53.018Z,7.30
2022-10-28T02:47:27.745Z,6.90
2022-10-28T02:50:02.401Z,8.57
2022-10-28T02:52:33.574Z,7.70
2022-10-28T02:55:05.702Z,7.53
2022-10-28T02:57:37.293Z,6.80
2022-10-28T03:00:10.256Z,7.13
2022-10-28T03:02:38.669Z,7.60
2022-10-28T03:05:09.237Z,8.43
2022-10-28T03:07:37.918Z,7.10
2022-10-28T03:10:06.825Z,8.90
2022-10-28T03:12:35.202Z,7.67
2022-10-28T03:15:03.928Z,7.77
2022-10-28T03:17:32.490Z,7.97
2022-10-28T03:20:00.947Z,6.73
2022-10-28T03:22:30.875Z,7.77
2022-10-28T03:25:01.362Z,7.17
2022-10-28T03:27:29.861Z,7.47
2022-10-28T03:29:58.273Z,7.70
2022-10-28T03:32:26.508Z,6.90
2022-10-28T03:34:54.910Z,7.40
2022-10-28T03:37:25.268Z,7.57
2022-10-28T03:39:55.033Z,8.07
2022-10-28T03:42:23.390Z,8.07
2022-10-28T03:44:51.774Z,7.40
2022-10-28T03:47:20.043Z,7.10
2022-10-28T03:49:51.572Z,7.40
2022-10-28T03:52:20.072Z,7.60
2022-10-28T03:54:48.337Z,7.17
2022-10-28T03:57:18.610Z,7.07
2022-10-28T03:59:47.008Z,7.20
2022-10-28T04:02:15.994Z,6.80
2022-10-28T04:04:44.371Z,6.83
2022-10-28T04:07:12.695Z,7.93
2022-10-28T04:09:42.728Z,7.00
2022-10-28T04:12:12.098Z,6.70
2022-10-28T04:14:41.951Z,7.10
2022-10-28T04:17:10.358Z,6.37
2022-10-28T04:19:38.863Z,6.97
2022-10-28T04:22:10.864Z,6.53
2022-10-28T04:24:39.114Z,8.20
2022-10-28T04:27:07.598Z,7.03
2022-10-28T04:29:36.229Z,7.97
2022-10-28T04:32:06.130Z,7.97
2022-10-28T04:34:34.530Z,6.47
2022-10-28T04:37:03.271Z,7.20
2022-10-28T04:39:34.510Z,6.87
2022-10-28T04:42:02.984Z,7.30
2022-10-28T04:44:31.542Z,6.73
2022-10-28T04:46:59.953Z,7.63
2022-10-28T04:49:29.663Z,6.87
2022-10-28T04:51:57.961Z,6.90
2022-10-28T04:54:27.896Z,7.63
2022-10-28T04:56:56.447Z,7.07
2022-10-28T04:59:24.867Z,6.50
2022-10-28T05:01:53.204Z,7.23
2022-10-28T05:04:21.924Z,7.13
2022-10-28T05:06:51.571Z,7.90
2022-10-28T05:09:19.877Z,6.73
2022-10-28T05:11:48.171Z,7.23
2022-10-28T05:14:16.541Z,6.87
2022-10-28T05:16:45.107Z,7.80
2022-10-28T05:19:13.475Z,7.50
2022-10-28T05:21:41.760Z,8.53
2022-10-28T05:24:11.765Z,8.07
2022-10-28T05:26:40.196Z,7.50
2022-10-28T05:29:08.756Z,8.30
2022-10-28T05:31:37.343Z,7.60
2022-10-28T05:34:05.741Z,7.03
2022-10-28T05:36:34.136Z,7.50
2022-10-28T05:39:02.486Z,7.73
2022-10-28T05:41:36.376Z,8.37
2022-10-28T05:44:07.357Z,7.17
2022-10-28T05:46:35.773Z,7.70
2022-10-28T05:49:04.360Z,7.43
2022-10-28T05:51:32.790Z,7.67
2022-10-28T05:54:01.436Z,6.90
2022-10-28T05:56:31.232Z,8.20
2022-10-28T05:58:59.711Z,7.53
2022-10-28T06:01:28.251Z,7.47
2022-10-28T06:03:56.853Z,7.43
2022-10-28T06:06:25.402Z,7.33
2022-10-28T06:08:53.900Z,7.57
2022-10-28T06:11:20.785Z,8.67
2022-10-28T06:13:50.656Z,8.47
2022-10-28T06:16:19.093Z,8.93
2022-10-28T06:18:47.624Z,8.57
2022-10-28T06:21:15.987Z,7.60
2022-10-28T06:23:46.720Z,7.60
2022-10-28T06:26:15.185Z,9.00
2022-10-28T06:28:46.247Z,7.97
2022-10-28T06:31:16.094Z,8.03
2022-10-28T06:33:44.562Z,8.00
2022-10-28T06:36:13.952Z,7.67
2022-10-28T06:38:42.458Z,8.60
2022-10-28T06:41:11.005Z,8.03
2022-10-28T06:43:39.558Z,8.93
2022-10-28T06:46:08.228Z,8.77
2022-10-28T06:48:39.546Z,7.93
2022-10-28T06:51:08.083Z,8.50
2022-10-28T06:53:36.492Z,8.20
2022-10-28T06:56:05.282Z,7.57
2022-10-28T06:58:33.723Z,7.80
2022-10-28T07:01:05.481Z,7.40
2022-10-28T07:03:34.043Z,8.07
2022-10-28T07:06:03.943Z,8.50
2022-10-28T07:08:32.800Z,7.67
2022-10-28T07:11:02.711Z,7.23
2022-10-28T07:13:31.198Z,7.80
2022-10-28T07:16:01.042Z,7.77
2022-10-28T07:18:31.015Z,8.00
2022-10-28T07:21:00.178Z,8.17
2022-10-28T07:23:31.700Z,8.07
2022-10-28T07:26:00.236Z,8.93
2022-10-28T07:28:29.148Z,8.03
2022-10-28T07:31:02.742Z,8.10
2022-10-28T07:33:31.673Z,8.87
2022-10-28T07:36:00.227Z,8.77
2022-10-28T07:38:29.950Z,8.50
2022-10-28T07:40:58.649Z,7.93
2022-10-28T07:43:27.659Z,7.80
2022-10-28T07:45:59.496Z,7.37
2022-10-28T07:48:27.938Z,7.63
2022-10-28T07:50:56.258Z,8.00
2022-10-28T07:53:27.816Z,7.40
2022-10-28T07:56:00.569Z,7.93
2022-10-28T07:58:29.395Z,7.17
2022-10-28T08:01:04.017Z,7.67
2022-10-28T08:03:38.746Z,8.77
2022-10-28T08:06:13.839Z,7.90
2022-10-28T08:08:42.190Z,7.53
2022-10-28T08:11:13.168Z,8.07
2022-10-28T08:13:41.935Z,7.90
2022-10-28T08:16:10.820Z,7.97
2022-10-28T08:18:40.471Z,6.60
2022-10-28T08:21:11.830Z,7.13
2022-10-28T08:23:41.530Z,7.50
2022-10-28T08:26:09.966Z,7.63
2022-10-28T08:28:39.722Z,7.93
2022-10-28T08:31:10.189Z,7.57
2022-10-28T08:33:39.812Z,8.07
2022-10-28T08:36:09.509Z,7.27
2022-10-28T08:38:41.654Z,7.57
2022-10-28T08:41:25.015Z,7.53
2022-10-28T08:44:15.721Z,7.03
2022-10-28T08:47:01.049Z,7.07
2022-10-28T08:49:33.797Z,6.50
2022-10-28T08:52:06.695Z,6.87
2022-10-28T08:54:41.612Z,7.47
2022-10-28T08:57:18.321Z,6.53
2022-10-28T08:59:53.136Z,6.73
2022-10-28T09:02:24.205Z,7.27
2022-10-28T09:04:57.866Z,6.07
2022-10-28T09:07:26.838Z,6.77
2022-10-28T09:09:56.169Z,7.47
2022-10-28T09:12:36.320Z,6.27
2022-10-28T09:15:26.344Z,6.23
2022-10-28T09:17:58.263Z,6.37
2022-10-28T09:20:40.750Z,7.83
2022-10-28T09:23:19.773Z,6.50
2022-10-28T09:25:57.418Z,6.20
2022-10-28T09:28:39.263Z,5.97
2022-10-28T09:31:15.970Z,6.30
2022-10-28T09:34:01.289Z,7.60
2022-10-28T09:36:35.207Z,6.20
2022-10-28T09:39:05.945Z,6.37
2022-10-28T09:41:38.917Z,6.63
2022-10-28T09:44:15.128Z,6.87
2022-10-28T09:46:48.176Z,6.90
2022-10-28T09:49:22.160Z,6.17
2022-10-28T09:51:54.777Z,6.37
2022-10-28T09:54:31.189Z,5.40
2022-10-28T09:56:59.660Z,6.07
2022-10-28T09:59:28.031Z,6.33
2022-10-28T10:01:58.108Z,6.10
2022-10-28T10:04:31.415Z,7.13
2022-10-28T10:07:05.002Z,5.83
2022-10-28T10:09:34.756Z,6.10
2022-10-28T10:12:07.629Z,6.57
2022-10-28T10:14:40.786Z,6.40
2022-10-28T10:17:17.765Z,6.30
2022-10-28T10:20:06.414Z,6.07
2022-10-28T10:22:37.221Z,7.37
2022-10-28T10:25:22.630Z,6.40
2022-10-28T10:27:53.708Z,5.97
2022-10-28T10:30:25.323Z,6.57
2022-10-28T10:32:55.200Z,7.07
2022-10-28T10:35:27.762Z,5.97
2022-10-28T10:37:59.159Z,6.57
2022-10-28T10:40:31.460Z,6.20
2022-10-28T10:43:22.910Z,6.33
2022-10-28T10:45:54.490Z,6.40
2022-10-28T10:48:24.211Z,5.77
2022-10-28T10:50:53.986Z,5.97
2022-10-28T10:53:25.649Z,5.90
2022-10-28T10:55:57.298Z,5.93
2022-10-28T10:58:27.781Z,5.50
2022-10-28T11:00:58.392Z,5.77
2022-10-28T11:03:31.851Z,5.80
2022-10-28T11:08:50.449Z,5.70
2022-10-28T11:11:22.114Z,6.20
2022-10-28T11:14:04.636Z,6.87
2022-10-28T11:16:33.250Z,6.33
2022-10-28T11:19:17.141Z,6.23
2022-10-28T11:22:03.300Z,5.90
2022-10-28T11:24:52.787Z,6.50
2022-10-28T11:27:34.854Z,5.57
2022-10-28T11:30:04.037Z,6.13
2022-10-28T11:32:54.625Z,5.60
2022-10-28T11:35:50.151Z,5.70
2022-10-28T11:38:35.340Z,5.53
2022-10-28T11:41:17.316Z,5.83
2022-10-28T11:43:54.767Z,5.67
2022-10-28T11:46:36.777Z,5.63
2022-10-28T11:49:34.782Z,5.27
2022-10-28T11:52:15.524Z,5.37
2022-10-28T11:54:58.520Z,5.70
2022-10-28T11:57:39.492Z,4.70
2022-10-28T12:00:29.653Z,5.80
2022-10-28T12:03:13.886Z,5.97
2022-10-28T12:05:48.904Z,4.50
2022-10-28T12:08:33.931Z,5.67
2022-10-28T12:11:14.055Z,5.60
2022-10-28T12:13:54.788Z,5.50
2022-10-28T12:16:33.314Z,4.90
2022-10-28T12:19:07.176Z,5.97
2022-10-28T12:21:38.901Z,5.93
2022-10-28T12:24:16.271Z,4.93
2022-10-28T12:26:49.041Z,5.37
2022-10-28T12:29:23.582Z,5.63
2022-10-28T12:31:58.204Z,4.60
2022-10-28T12:34:33.816Z,5.20
2022-10-28T12:37:07.346Z,5.17
2022-10-28T12:39:43.533Z,4.93
2022-10-28T12:42:16.393Z,5.77
2022-10-28T12:44:47.811Z,5.30
2022-10-28T12:47:27.150Z,4.80
2022-10-28T12:50:14.998Z,4.93
2022-10-28T12:52:52.709Z,4.60
2022-10-28T12:55:30.948Z,4.73
2022-10-28T12:58:03.895Z,5.03
2022-10-28T13:00:36.827Z,4.53
2022-10-28T13:03:13.927Z,5.07
2022-10-28T13:05:47.977Z,4.67
2022-10-28T13:08:57.623Z,4.47
2022-10-28T13:12:22.321Z,5.33
2022-10-28T13:15:12.427Z,4.93
2022-10-28T13:17:51.548Z,4.30
2022-10-28T13:20:29.435Z,4.90
2022-10-28T13:23:07.819Z,5.23
2022-10-28T13:26:00.710Z,4.97
2022-10-28T13:28:34.509Z,4.30
2022-10-28T13:31:07.527Z,5.83
2022-10-28T13:33:38.226Z,4.50
2022-10-28T13:36:17.676Z,4.73
2022-10-28T13:38:53.570Z,4.80
2022-10-28T13:41:42.092Z,4.40
2022-10-28T13:44:27.045Z,4.60
2022-10-28T13:47:26.256Z,4.90
2022-10-28T13:50:30.687Z,4.80
2022-10-28T13:53:42.930Z,4.27
2022-10-28T13:56:23.316Z,4.63
2022-10-28T13:58:54.733Z,4.50
2022-10-28T14:02:02.239Z,4.47
2022-10-28T14:04:54.563Z,4.73
2022-10-28T14:07:29.095Z,4.67
2022-10-28T14:10:00.941Z,4.67
2022-10-28T14:12:32.867Z,4.30
2022-10-28T14:15:08.127Z,4.50
2022-10-28T14:17:40.265Z,6.07
2022-10-28T14:20:26.889Z,4.60
2022-10-28T14:22:55.690Z,5.77
2022-10-28T14:26:01.222Z,4.70
2022-10-28T14:29:08.426Z,4.73
2022-10-28T14:31:45.120Z,4.97
2022-10-28T14:34:35.689Z,4.70
2022-10-28T14:37:27.502Z,5.27
2022-10-28T14:40:09.812Z,4.70
2022-10-28T14:42:57.206Z,4.53
2022-10-28T14:45:35.871Z,4.60
2022-10-28T14:48:32.396Z,4.90
2022-10-28T14:51:04.085Z,5.67
2022-10-28T14:53:36.788Z,5.40
2022-10-28T14:56:11.996Z,5.07
2022-10-28T14:58:43.518Z,4.73
2022-10-28T15:01:36.134Z,5.07
2022-10-28T15:04:12.350Z,5.33
2022-10-28T15:06:43.747Z,4.97
2022-10-28T15:09:20.884Z,5.37
2022-10-28T15:11:55.994Z,5.97
2022-10-28T15:14:30.831Z,4.90
2022-10-28T15:17:00.647Z,5.37
2022-10-28T15:19:34.767Z,6.77
2022-10-28T15:22:05.376Z,5.27
2022-10-28T15:24:35.663Z,5.47
2022-10-28T15:27:04.279Z,5.67
2022-10-28T15:29:33.038Z,6.03
2022-10-28T15:32:11.500Z,4.90
2022-10-28T15:34:40.227Z,5.00
2022-10-28T15:37:09.639Z,5.63
2022-10-28T15:39:40.767Z,5.17
2022-10-28T15:42:37.829Z,5.77
2022-10-28T15:45:07.654Z,5.10
2022-10-28T15:47:38.956Z,5.10
2022-10-28T15:50:26.996Z,5.87
2022-10-28T15:53:16.065Z,4.93
2022-10-28T15:58:39.930Z,4.97
2022-10-28T16:01:11.008Z,5.87
2022-10-28T16:03:45.178Z,5.63
2022-10-28T16:06:24.182Z,5.20
2022-10-28T16:09:27.769Z,5.43
2022-10-28T16:12:01.771Z,5.13
2022-10-28T16:14:36.406Z,5.07
2022-10-28T16:17:07.330Z,6.00
2022-10-28T16:19:39.854Z,5.10
2022-10-28T16:22:12.209Z,5.83
2022-10-28T16:24:41.539Z,5.53
2022-10-28T16:27:23.391Z,5.77
2022-10-28T16:29:52.720Z,6.00
2022-10-28T16:32:26.747Z,5.33
2022-10-28T16:34:55.151Z,5.73
2022-10-28T16:37:25.931Z,6.00
2022-10-28T16:39:54.671Z,6.10
2022-10-28T16:42:25.401Z,6.07
2022-10-28T16:44:54.104Z,6.23
2022-10-28T16:47:26.837Z,6.07
2022-10-28T16:49:57.519Z,6.03
2022-10-28T16:52:30.361Z,7.17
2022-10-28T16:54:59.832Z,6.30
2022-10-28T16:57:29.722Z,6.57
2022-10-28T16:59:58.205Z,6.17
2022-10-28T17:02:29.878Z,6.03
2022-10-28T17:04:59.346Z,6.07
2022-10-28T17:07:28.515Z,6.83
2022-10-28T17:09:57.039Z,6.73
2022-10-28T17:12:27.372Z,6.30
2022-10-28T17:14:57.384Z,6.27
2022-10-28T17:17:25.929Z,6.57
2022-10-28T17:19:54.347Z,5.87
2022-10-28T17:22:22.872Z,6.07
2022-10-28T17:24:51.213Z,6.70
2022-10-28T17:27:19.841Z,7.50
2022-10-28T17:29:50.351Z,7.13
2022-10-28T17:32:20.375Z,6.73
2022-10-28T17:34:49.029Z,6.93
2022-10-28T17:37:17.587Z,7.20
2022-10-28T17:39:45.985Z,5.83
2022-10-28T17:42:14.520Z,7.13
2022-10-28T17:44:46.193Z,6.43
2022-10-28T17:47:14.770Z,6.60
2022-10-28T17:49:44.715Z,6.80
2022-10-28T17:52:13.485Z,6.97
2022-10-28T17:54:41.860Z,7.50
2022-10-28T17:57:10.242Z,8.20
2022-10-28T17:59:38.617Z,7.07
2022-10-28T18:02:07.568Z,9.10
2022-10-28T18:04:36.274Z,8.83
2022-10-28T18:07:06.194Z,7.57
2022-10-28T18:09:34.505Z,7.83
2022-10-28T18:12:03.194Z,7.67
2022-10-28T18:14:31.650Z,7.77
2022-10-28T18:16:59.925Z,8.10
2022-10-28T18:19:28.307Z,7.87
2022-10-28T18:21:56.779Z,7.77
2022-10-28T18:24:26.563Z,7.90
2022-10-28T18:26:57.078Z,8.07
2022-10-28T18:29:25.495Z,7.90
2022-10-28T18:31:53.908Z,8.93
2022-10-28T18:34:23.817Z,8.50
2022-10-28T18:36:52.877Z,7.50
2022-10-28T18:39:21.505Z,7.53
2022-10-28T18:41:51.634Z,8.20
2022-10-28T18:44:24.274Z,7.40
2022-10-28T18:46:52.888Z,8.60
2022-10-28T18:49:21.630Z,8.40
2022-10-28T18:51:50.089Z,9.43
2022-10-28T18:54:18.593Z,8.00
2022-10-28T18:56:48.293Z,8.40
2022-10-28T18:59:19.077Z,7.43
2022-10-28T19:01:48.439Z,8.20
2022-10-28T19:04:17.342Z,9.03
2022-10-28T19:06:46.864Z,8.03
2022-10-28T19:09:15.352Z,7.63
2022-10-28T19:11:43.777Z,8.20
2022-10-28T19:14:12.298Z,8.20
2022-10-28T19:16:42.175Z,7.90
2022-10-28T19:19:10.549Z,8.00
2022-10-28T19:21:39.007Z,7.70
2022-10-28T19:24:08.023Z,8.27
2022-10-28T19:26:36.623Z,7.50
2022-10-28T19:29:07.451Z,8.07
2022-10-28T19:31:38.818Z,8.40
2022-10-28T19:34:10.923Z,7.33
2022-10-28T19:36:39.799Z,7.03
2022-10-28T19:39:08.320Z,7.73
2022-10-28T19:41:36.875Z,7.40
2022-10-28T19:44:05.657Z,8.50
2022-10-28T19:46:35.983Z,9.43
2022-10-28T19:49:06.675Z,9.60
2022-10-28T19:51:38.257Z,7.93
2022-10-28T19:54:09.393Z,8.17
2022-10-28T19:56:39.440Z,7.80
2022-10-28T19:59:08.500Z,7.90
2022-10-28T20:01:38.676Z,7.17
2022-10-28T20:04:07.849Z,9.10
2022-10-28T20:06:39.543Z,8.57
2022-10-28T20:09:08.221Z,8.30
2022-10-28T20:11:38.663Z,7.87
2022-10-28T20:14:10.797Z,8.87
2022-10-28T20:16:43.667Z,8.60
2022-10-28T20:19:12.181Z,8.20
2022-10-28T20:21:42.027Z,8.30
2022-10-28T20:24:10.585Z,8.00
2022-10-28T20:26:40.072Z,8.00
2022-10-28T20:29:10.030Z,9.23
2022-10-28T20:31:40.011Z,8.80
2022-10-28T20:34:09.378Z,8.47
2022-10-28T20:36:39.624Z,9.73
2022-10-28T20:39:13.392Z,9.07
2022-10-28T20:41:43.308Z,9.77
2022-10-28T20:44:12.186Z,9.43
2022-10-28T20:46:40.812Z,8.73
2022-10-28T20:49:10.684Z,9.83
2022-10-28T20:51:39.067Z,9.57
2022-10-28T20:54:09.577Z,9.37
2022-10-28T20:56:40.453Z,9.60
2022-10-28T20:59:09.648Z,9.10
2022-10-28T21:01:40.284Z,9.63
2022-10-28T21:04:11.132Z,9.43
2022-10-28T21:06:40.405Z,10.00
2022-10-28T21:09:11.871Z,9.17
2022-10-28T21:11:40.615Z,8.37
2022-10-28T21:14:09.412Z,8.87
2022-10-28T21:16:38.063Z,7.97
2022-10-28T21:19:07.015Z,9.37
2022-10-28T21:21:35.872Z,8.90
2022-10-28T21:24:04.986Z,8.30
2022-10-28T21:26:35.419Z,9.33
2022-10-28T21:29:04.262Z,10.03
2022-10-28T21:31:33.162Z,8.97
2022-10-28T21:34:04.470Z,10.53
2022-10-28T21:36:37.767Z,8.10
2022-10-28T21:39:06.709Z,7.80
2022-10-28T21:41:39.657Z,7.53
2022-10-28T21:44:08.208Z,7.90
2022-10-28T21:46:36.820Z,9.07
2022-10-28T21:49:05.432Z,8.20
2022-10-28T21:51:34.218Z,9.33
2022-10-28T21:54:02.971Z,9.17
2022-10-28T21:56:31.680Z,8.47
2022-10-28T21:59:02.366Z,8.73
2022-10-28T22:01:32.641Z,9.00
2022-10-28T22:04:01.308Z,9.00
2022-10-28T22:06:30.061Z,8.43
2022-10-28T22:09:00.099Z,8.67
2022-10-28T22:11:28.768Z,9.60
2022-10-28T22:13:59.392Z,9.10
2022-10-28T22:16:32.582Z,9.70
2022-10-28T22:19:03.424Z,9.03
2022-10-28T22:21:35.738Z,8.47
2022-10-28T22:24:06.667Z,10.70
2022-10-28T22:26:40.130Z,11.17
2022-10-28T22:29:08.860Z,8.30
2022-10-28T22:31:43.500Z,8.97
2022-10-28T22:34:12.405Z,9.17
2022-10-28T22:36:43.340Z,7.77
2022-10-28T22:39:11.910Z,10.00
2022-10-28T22:41:40.710Z,8.10
2022-10-28T22:44:09.156Z,7.87
2022-10-28T22:46:41.055Z,9.43
2022-10-28T22:49:09.613Z,9.97
2022-10-28T22:51:38.867Z,8.37
2022-10-28T22:54:07.792Z,9.33
2022-10-28T22:56:36.573Z,8.57
2022-10-28T22:59:05.420Z,8.10
2022-10-28T23:01:34.603Z,7.23
2022-10-28T23:04:05.640Z,7.73
2022-10-28T23:06:34.393Z,8.20
2022-10-28T23:09:03.023Z,9.77
2022-10-28T23:11:31.839Z,9.60
2022-10-28T23:14:00.907Z,9.30
2022-10-28T23:16:29.682Z,11.00
2022-10-28T23:19:01.320Z,11.70
2022-10-28T23:21:32.593Z,9.37
2022-10-28T23:24:02.183Z,10.40
2022-10-28T23:26:31.290Z,10.17
2022-10-28T23:29:01.274Z,9.80
2022-10-28T23:31:30.317Z,9.30
2022-10-28T23:33:59.365Z,9.00
2022-10-28T23:36:27.800Z,10.17
2022-10-28T23:38:59.186Z,10.80
2022-10-28T23:41:27.780Z,11.23
2022-10-28T23:43:56.390Z,11.83
2022-10-28T23:46:25.507Z,11.37
2022-10-28T23:48:54.689Z,10.63
2022-10-28T23:51:23.600Z,9.07
2022-10-28T23:53:52.046Z,7.83
2022-10-28T23:56:22.213Z,8.77
2022-10-28T23:58:50.736Z,10.97
